createdAt,value
2023-08-21T00:00:18.129Z,11.93
2023-08-21T00:05:22.565Z,11.00
2023-08-21T00:10:25.680Z,11.77
2023-08-21T00:15:28.785Z,11.88
2023-08-21T00:20:33.566Z,11.35
2023-08-21T00:25:36.926Z,12.35
2023-08-21T00:30:40.075Z,11.95
2023-08-21T00:35:44.561Z,11.88
2023-08-21T00:40:47.682Z,11.52
2023-08-21T00:45:52.231Z,12.35
2023-08-21T00:50:57.036Z,12.18
2023-08-21T00:56:00.482Z,12.88
2023-08-21T01:01:05.787Z,11.27
2023-08-21T01:06:10.318Z,12.07
2023-08-21T01:11:21.038Z,12.05
2023-08-21T01:16:26.402Z,12.07
2023-08-21T01:21:30.974Z,11.95
2023-08-21T01:26:36.603Z,12.45
2023-08-21T01:31:42.998Z,12.88
2023-08-21T01:36:48.083Z,13.30
2023-08-21T01:41:52.524Z,11.80
2023-08-21T01:46:55.829Z,12.95
2023-08-21T01:51:58.930Z,11.95
2023-08-21T01:57:03.944Z,12.45
2023-08-21T02:02:07.066Z,12.48
2023-08-21T02:07:10.197Z,12.20
2023-08-21T02:12:14.621Z,12.25
2023-08-21T02:17:17.692Z,12.50
2023-08-21T02:22:20.823Z,11.93
2023-08-21T02:27:25.340Z,13.15
2023-08-21T02:32:28.494Z,11.85
2023-08-21T02:37:31.788Z,12.45
2023-08-21T02:42:36.648Z,11.73
2023-08-21T02:47:41.101Z,12.32
2023-08-21T02:52:44.319Z,12.13
2023-08-21T02:57:48.806Z,13.13
2023-08-21T03:02:52.054Z,12.75
2023-08-21T03:07:55.223Z,12.10
2023-08-21T03:12:59.677Z,11.68
2023-08-21T03:18:02.932Z,11.95
2023-08-21T03:23:06.133Z,11.82
2023-08-21T03:28:10.808Z,12.05
2023-08-21T03:33:13.944Z,12.43
2023-08-21T03:38:17.097Z,13.32
2023-08-21T03:43:21.512Z,12.48
2023-08-21T03:48:24.816Z,12.60
2023-08-21T03:53:28.831Z,12.82
2023-08-21T03:58:34.732Z,12.88
2023-08-21T04:03:38.042Z,12.18
2023-08-21T04:08:41.127Z,11.65
2023-08-21T04:13:45.559Z,11.48
2023-08-21T04:18:48.620Z,12.40
2023-08-21T04:23:51.773Z,12.35
2023-08-21T04:28:56.230Z,12.60
2023-08-21T04:33:59.354Z,12.40
2023-08-21T04:39:02.459Z,12.30
2023-08-21T04:44:06.994Z,12.80
2023-08-21T04:49:10.583Z,13.20
2023-08-21T04:54:13.748Z,12.25
2023-08-21T04:59:18.198Z,12.50
2023-08-21T05:04:21.308Z,12.07
2023-08-21T05:09:24.446Z,11.98
2023-08-21T05:14:32.082Z,11.68
2023-08-21T05:19:35.181Z,11.85
2023-08-21T05:24:38.321Z,12.23
2023-08-21T05:29:43.032Z,12.80
2023-08-21T05:34:46.320Z,10.63
2023-08-21T05:39:49.968Z,9.90
2023-08-21T05:44:54.371Z,9.38
2023-08-21T05:49:57.508Z,8.70
2023-08-21T05:55:00.804Z,8.70
2023-08-21T06:00:09.333Z,7.78
2023-08-21T06:05:12.461Z,8.57
2023-08-21T06:10:16.131Z,8.02
2023-08-21T06:15:20.855Z,7.95
2023-08-21T06:20:23.955Z,7.95
2023-08-21T06:25:27.097Z,8.30
2023-08-21T06:30:31.668Z,8.35
2023-08-21T06:35:34.743Z,9.23
2023-08-21T06:40:38.101Z,8.55
2023-08-21T06:45:43.346Z,8.18
2023-08-21T06:50:46.464Z,7.63
2023-08-21T06:55:49.572Z,8.88
2023-08-21T07:00:55.817Z,8.75
2023-08-21T07:06:01.577Z,9.20
2023-08-21T07:11:05.899Z,9.65
2023-08-21T07:16:10.466Z,9.48
2023-08-21T07:21:27.095Z,9.43
2023-08-21T07:26:35.851Z,9.65
2023-08-21T07:31:40.379Z,10.13
2023-08-21T07:36:43.496Z,9.70
2023-08-21T07:41:46.738Z,9.30
2023-08-21T07:46:51.208Z,9.02
2023-08-21T07:51:54.286Z,9.93
2023-08-21T07:56:57.508Z,9.32
2023-08-21T08:02:03.732Z,9.52
2023-08-21T08:07:06.904Z,9.52
2023-08-21T08:12:10.473Z,9.48
2023-08-21T08:17:14.888Z,9.65
2023-08-21T08:22:18.001Z,9.75
2023-08-21T08:27:21.084Z,9.80
2023-08-21T08:32:25.617Z,9.48
2023-08-21T08:37:28.745Z,9.15
2023-08-21T08:42:32.522Z,9.13
2023-08-21T08:47:38.105Z,9.50
2023-08-21T08:52:42.045Z,9.75
2023-08-21T08:57:45.347Z,9.02
2023-08-21T09:02:52.310Z,9.50
2023-08-21T09:08:11.625Z,10.57
2023-08-21T09:13:17.081Z,9.23
2023-08-21T09:18:21.725Z,9.73
2023-08-21T09:23:24.797Z,9.77
2023-08-21T09:28:27.992Z,9.32
2023-08-21T09:33:32.477Z,10.77
2023-08-21T09:38:37.369Z,8.93
2023-08-21T09:43:44.844Z,9.75
2023-08-21T09:48:50.265Z,8.95
2023-08-21T09:53:56.254Z,8.75
2023-08-21T09:58:59.414Z,8.95
2023-08-21T10:04:05.251Z,8.40
2023-08-21T10:09:09.796Z,8.73
2023-08-21T10:14:13.607Z,8.35
2023-08-21T10:19:20.054Z,8.68
2023-08-21T10:24:30.640Z,8.75
2023-08-21T10:29:34.634Z,8.45
2023-08-21T10:34:40.136Z,8.05
2023-08-21T10:39:58.870Z,8.38
2023-08-21T10:45:13.007Z,7.70
2023-08-21T10:50:17.441Z,7.80
2023-08-21T10:55:20.907Z,7.03
2023-08-21T11:00:24.099Z,7.28
2023-08-21T11:05:28.658Z,6.50
2023-08-21T11:10:34.598Z,6.68
2023-08-21T11:15:39.092Z,7.43
2023-08-21T11:20:44.379Z,7.25
2023-08-21T11:25:47.558Z,7.13
2023-08-21T11:30:50.743Z,7.50
2023-08-21T11:35:55.385Z,7.47
2023-08-21T11:41:00.521Z,7.43
2023-08-21T11:46:04.401Z,8.48
2023-08-21T11:51:09.565Z,7.78
2023-08-21T11:56:14.397Z,7.97
2023-08-21T12:01:21.262Z,7.80
2023-08-21T12:06:28.326Z,7.97
2023-08-21T12:11:31.500Z,7.72
2023-08-21T12:16:34.919Z,7.40
2023-08-21T12:21:40.025Z,7.85
2023-08-21T12:26:49.927Z,8.00
2023-08-21T12:31:53.817Z,8.05
2023-08-21T12:36:58.685Z,8.18
2023-08-21T12:42:01.767Z,8.00
2023-08-21T12:47:05.026Z,8.50
2023-08-21T12:52:11.001Z,8.43
2023-08-21T12:57:15.051Z,8.65
2023-08-21T13:02:18.192Z,9.00
2023-08-21T13:07:22.583Z,8.38
2023-08-21T13:12:25.667Z,8.25
2023-08-21T13:17:28.805Z,8.88
2023-08-21T13:22:47.151Z,8.32
2023-08-21T13:27:50.737Z,8.40
2023-08-21T13:32:53.855Z,8.05
2023-08-21T13:37:58.357Z,8.02
2023-08-21T13:43:03.009Z,8.00
2023-08-21T13:48:07.568Z,8.05
2023-08-21T13:53:12.048Z,8.35
2023-08-21T13:58:15.624Z,7.80
2023-08-21T14:03:18.736Z,8.07
2023-08-21T14:08:23.183Z,7.50
2023-08-21T14:13:26.297Z,8.15
2023-08-21T14:18:29.424Z,7.57
2023-08-21T14:23:34.536Z,7.63
2023-08-21T14:28:37.790Z,7.50
2023-08-21T14:33:40.921Z,7.35
2023-08-21T14:38:45.372Z,8.00
2023-08-21T14:43:48.501Z,7.88
2023-08-21T14:48:51.594Z,7.57
2023-08-21T14:53:56.134Z,7.38
2023-08-21T14:58:59.282Z,7.07
2023-08-21T15:04:02.640Z,7.43
2023-08-21T15:09:07.710Z,6.65
2023-08-21T15:14:13.264Z,6.70
2023-08-21T15:19:16.372Z,6.85
2023-08-21T15:24:20.848Z,6.50
2023-08-21T15:29:24.263Z,6.05
2023-08-21T15:34:27.332Z,6.35
2023-08-21T15:39:31.790Z,7.10
2023-08-21T15:44:34.948Z,7.47
2023-08-21T15:49:38.286Z,7.35
2023-08-21T15:54:42.783Z,6.82
2023-08-21T15:59:45.978Z,6.53
2023-08-21T16:04:49.110Z,6.97
2023-08-21T16:09:53.565Z,7.43
2023-08-21T16:14:56.985Z,6.72
2023-08-21T16:20:03.913Z,6.78
2023-08-21T16:25:09.446Z,7.03
2023-08-21T16:30:13.505Z,6.50
2023-08-21T16:35:16.889Z,6.93
2023-08-21T16:40:24.290Z,6.82
2023-08-21T16:45:27.860Z,6.55
2023-08-21T16:50:30.971Z,6.50
2023-08-21T16:55:35.395Z,6.18
2023-08-21T17:00:38.581Z,5.97
2023-08-21T17:05:41.736Z,6.40
2023-08-21T17:10:46.267Z,6.35
2023-08-21T17:15:52.037Z,6.28
2023-08-21T17:20:56.598Z,6.85
2023-08-21T17:26:01.061Z,6.28
2023-08-21T17:31:04.173Z,6.00
2023-08-21T17:36:07.690Z,6.22
2023-08-21T17:41:12.157Z,6.90
2023-08-21T17:46:17.855Z,7.00
2023-08-21T17:51:20.987Z,7.68
2023-08-21T17:56:25.501Z,7.38
2023-08-21T18:01:28.920Z,6.93
2023-08-21T18:06:32.404Z,7.20
2023-08-21T18:11:36.923Z,7.45
2023-08-21T18:16:40.125Z,7.25
2023-08-21T18:21:44.321Z,7.80
2023-08-21T18:26:49.032Z,7.63
2023-08-21T18:31:52.161Z,8.30
2023-08-21T18:36:55.242Z,9.50
2023-08-21T18:41:59.671Z,8.05
2023-08-21T18:47:03.151Z,8.20
2023-08-21T18:52:06.839Z,7.78
2023-08-21T18:57:11.262Z,7.85
2023-08-21T19:02:16.080Z,7.78
2023-08-21T19:07:19.185Z,8.30
2023-08-21T19:12:23.661Z,8.00
2023-08-21T19:17:27.657Z,8.20
2023-08-21T19:22:30.802Z,8.52
2023-08-21T19:27:35.289Z,8.35
2023-08-21T19:32:38.509Z,7.65
2023-08-21T19:37:41.877Z,8.60
2023-08-21T19:42:46.651Z,8.30
2023-08-21T19:47:50.517Z,8.32
2023-08-21T19:52:53.977Z,8.35
2023-08-21T19:57:58.475Z,8.75
2023-08-21T20:03:01.888Z,9.10
2023-08-21T20:08:05.633Z,8.35
2023-08-21T20:13:10.088Z,8.35
2023-08-21T20:18:13.303Z,8.95
2023-08-21T20:23:16.875Z,9.95
2023-08-21T20:28:21.315Z,9.93
2023-08-21T20:33:24.406Z,9.45
2023-08-21T20:38:28.884Z,9.73
2023-08-21T20:43:34.505Z,9.27
2023-08-21T20:48:37.649Z,10.30
2023-08-21T20:53:40.772Z,10.18
2023-08-21T20:58:45.161Z,10.00
2023-08-21T21:03:48.308Z,9.27
2023-08-21T21:08:51.399Z,9.75
2023-08-21T21:13:55.819Z,9.77
2023-08-21T21:18:58.911Z,9.80
2023-08-21T21:24:01.980Z,9.85
2023-08-21T21:29:06.529Z,9.55
2023-08-21T21:34:09.630Z,9.95
2023-08-21T21:39:14.209Z,9.98
2023-08-21T21:44:18.658Z,9.88
2023-08-21T21:49:21.784Z,10.07
2023-08-21T21:54:24.863Z,10.32
2023-08-21T21:59:29.323Z,9.52
2023-08-21T22:04:32.430Z,10.30
2023-08-21T22:09:35.538Z,9.85
2023-08-21T22:14:40.040Z,9.75
2023-08-21T22:19:43.357Z,9.75
2023-08-21T22:24:46.488Z,10.05
2023-08-21T22:29:50.896Z,10.30
2023-08-21T22:34:53.989Z,10.43
2023-08-21T22:39:57.150Z,10.35
2023-08-21T22:45:01.757Z,9.73
2023-08-21T22:50:05.396Z,9.77
2023-08-21T22:55:10.006Z,10.05
2023-08-21T23:00:16.495Z,10.00
2023-08-21T23:05:19.573Z,10.38
2023-08-21T23:10:22.896Z,10.43
2023-08-21T23:15:27.345Z,9.93
2023-08-21T23:20:30.876Z,10.70
2023-08-21T23:25:34.048Z,9.85
2023-08-21T23:30:39.931Z,10.23
2023-08-21T23:35:43.076Z,10.50
2023-08-21T23:40:46.222Z,10.27
2023-08-21T23:45:50.668Z,10.10
2023-08-21T23:50:53.748Z,10.25
2023-08-21T23:55:56.842Z,9.52
